createdAt,value
2018-09-12T00:00:10.882Z,20.16
2018-09-12T00:02:38.546Z,20.10
2018-09-12T00:05:06.259Z,20.03
2018-09-12T00:07:33.950Z,19.98
2018-09-12T00:10:01.642Z,19.95
2018-09-12T00:12:29.354Z,19.96
2018-09-12T00:14:57.041Z,19.95
2018-09-12T00:17:24.711Z,19.87
2018-09-12T00:19:52.412Z,19.79
2018-09-12T00:22:20.130Z,19.81
2018-09-12T00:24:47.890Z,19.77
2018-09-12T00:27:15.760Z,19.76
2018-09-12T00:29:43.419Z,19.67
2018-09-12T00:32:11.155Z,19.66
2018-09-12T00:34:39.230Z,19.59
2018-09-12T00:37:07.007Z,19.55
2018-09-12T00:39:35.167Z,19.47
2018-09-12T00:42:02.951Z,19.37
2018-09-12T00:44:30.648Z,19.38
2018-09-12T00:46:58.333Z,19.29
2018-09-12T00:49:26.005Z,19.29
2018-09-12T00:51:53.710Z,19.27
2018-09-12T00:54:21.381Z,19.25
2018-09-12T00:56:49.066Z,19.24
2018-09-12T00:59:16.739Z,19.27
2018-09-12T01:01:47.331Z,19.16
2018-09-12T01:04:15.035Z,19.22
2018-09-12T01:06:42.720Z,19.19
2018-09-12T01:09:10.402Z,19.13
2018-09-12T01:11:38.114Z,19.15
2018-09-12T01:14:06.376Z,19.11
2018-09-12T01:16:34.815Z,19.09
2018-09-12T01:19:03.089Z,19.06
2018-09-12T01:21:30.774Z,19.02
2018-09-12T01:24:08.106Z,19.00
2018-09-12T01:26:35.932Z,19.00
2018-09-12T01:29:03.652Z,19.04
2018-09-12T01:31:31.367Z,19.04
2018-09-12T01:33:59.059Z,19.04
2018-09-12T01:36:26.783Z,19.00
2018-09-12T01:38:54.483Z,19.01
2018-09-12T01:41:25.626Z,19.01
2018-09-12T01:43:53.322Z,18.90
2018-09-12T01:46:21.115Z,18.89
2018-09-12T01:48:48.935Z,18.82
2018-09-12T01:51:16.654Z,18.82
2018-09-12T01:53:44.363Z,18.76
2018-09-12T01:56:12.313Z,18.76
2018-09-12T01:58:40.007Z,18.71
2018-09-12T02:01:07.810Z,18.74
2018-09-12T02:03:35.871Z,18.72
2018-09-12T02:06:03.591Z,18.69
2018-09-12T02:08:31.296Z,18.67
2018-09-12T02:10:59.023Z,18.57
2018-09-12T02:13:26.723Z,18.57
2018-09-12T02:15:54.531Z,18.59
2018-09-12T02:18:22.272Z,18.60
2018-09-12T02:20:49.994Z,18.55
2018-09-12T02:23:17.714Z,18.49
2018-09-12T02:25:45.470Z,18.45
2018-09-12T02:28:13.182Z,18.40
2018-09-12T02:30:40.897Z,18.37
2018-09-12T02:33:08.637Z,18.32
2018-09-12T02:35:41.227Z,18.33
2018-09-12T02:38:08.942Z,18.26
2018-09-12T02:40:36.988Z,18.24
2018-09-12T02:43:04.759Z,18.24
2018-09-12T02:45:32.472Z,18.25
2018-09-12T02:48:00.170Z,18.23
2018-09-12T02:50:27.886Z,18.23
2018-09-12T02:52:55.582Z,18.15
2018-09-12T02:55:23.276Z,18.18
2018-09-12T02:57:50.979Z,18.14
2018-09-12T03:00:18.699Z,18.11
2018-09-12T03:05:27.631Z,18.05
2018-09-12T03:07:55.453Z,18.04
2018-09-12T03:10:23.220Z,18.01
2018-09-12T03:12:50.932Z,17.99
2018-09-12T03:15:18.646Z,17.93
2018-09-12T03:17:46.343Z,18.00
2018-09-12T03:20:14.053Z,17.99
2018-09-12T03:22:41.769Z,17.97
2018-09-12T03:25:09.482Z,17.95
2018-09-12T03:27:37.208Z,17.90
2018-09-12T03:30:05.348Z,17.80
2018-09-12T03:32:33.044Z,17.84
2018-09-12T03:35:00.779Z,17.87
2018-09-12T03:37:28.534Z,17.88
2018-09-12T03:39:56.369Z,17.89
2018-09-12T03:42:24.086Z,17.94
2018-09-12T03:44:51.786Z,17.93
2018-09-12T03:47:19.459Z,17.88
2018-09-12T03:49:47.175Z,17.84
2018-09-12T03:52:14.867Z,17.86
2018-09-12T03:54:42.711Z,17.85
2018-09-12T03:57:10.400Z,17.88
2018-09-12T03:59:38.083Z,17.76
2018-09-12T04:02:05.834Z,17.66
2018-09-12T04:04:33.512Z,17.69
2018-09-12T04:07:01.306Z,17.61
2018-09-12T04:09:29.005Z,17.68
2018-09-12T04:11:56.767Z,17.71
2018-09-12T04:14:24.486Z,17.72
2018-09-12T04:16:52.246Z,17.71
2018-09-12T04:19:19.967Z,17.66
2018-09-12T04:21:47.727Z,17.55
2018-09-12T04:24:15.642Z,17.60
2018-09-12T04:26:43.264Z,17.63
2018-09-12T04:29:10.948Z,17.63
2018-09-12T04:31:38.647Z,17.59
2018-09-12T04:34:06.384Z,17.58
2018-09-12T04:36:34.083Z,17.47
2018-09-12T04:39:01.982Z,17.52
2018-09-12T04:41:33.720Z,17.51
2018-09-12T04:44:01.415Z,17.55
2018-09-12T04:46:29.159Z,17.52
2018-09-12T04:48:56.871Z,17.47
2018-09-12T04:51:24.579Z,17.43
2018-09-12T04:53:52.294Z,17.47
2018-09-12T04:56:19.996Z,17.38
2018-09-12T04:58:47.715Z,17.34
2018-09-12T05:01:15.511Z,17.30
2018-09-12T05:03:43.191Z,17.24
2018-09-12T05:06:10.895Z,17.22
2018-09-12T05:08:38.931Z,17.13
2018-09-12T05:11:06.635Z,17.15
2018-09-12T05:13:34.397Z,17.14
2018-09-12T05:16:02.260Z,17.09
2018-09-12T05:18:29.868Z,17.06
2018-09-12T05:20:57.576Z,17.08
2018-09-12T05:23:25.594Z,17.04
2018-09-12T05:25:53.320Z,17.10
2018-09-12T05:28:21.068Z,17.08
2018-09-12T05:30:48.905Z,16.97
2018-09-12T05:33:16.591Z,16.96
2018-09-12T05:35:44.289Z,16.96
2018-09-12T05:38:12.388Z,16.98
2018-09-12T05:40:40.107Z,17.04
2018-09-12T05:43:07.851Z,17.01
2018-09-12T05:45:35.547Z,17.05
2018-09-12T05:48:03.291Z,17.07
2018-09-12T05:50:30.990Z,17.13
2018-09-12T05:52:58.675Z,17.21
2018-09-12T05:55:26.429Z,17.26
2018-09-12T05:57:54.191Z,17.22
2018-09-12T06:00:22.566Z,17.20
2018-09-12T06:02:54.075Z,17.31
2018-09-12T06:05:21.815Z,17.42
2018-09-12T06:07:49.530Z,17.39
2018-09-12T06:10:17.271Z,17.42
2018-09-12T06:12:45.099Z,17.47
2018-09-12T06:15:13.003Z,17.58
2018-09-12T06:17:40.675Z,17.58
2018-09-12T06:20:08.376Z,17.61
2018-09-12T06:22:36.198Z,17.65
2018-09-12T06:25:03.996Z,17.76
2018-09-12T06:27:31.835Z,17.78
2018-09-12T06:29:59.626Z,17.95
2018-09-12T06:32:27.378Z,17.92
2018-09-12T06:34:55.235Z,18.04
2018-09-12T06:37:22.991Z,18.10
2018-09-12T06:39:50.712Z,18.06
2018-09-12T06:42:18.427Z,18.21
2018-09-12T06:44:46.160Z,18.32
2018-09-12T06:47:13.842Z,18.36
2018-09-12T06:49:45.994Z,18.49
2018-09-12T06:52:14.433Z,18.52
2018-09-12T06:54:42.354Z,18.53
2018-09-12T06:57:10.046Z,18.58
2018-09-12T06:59:37.759Z,18.63
2018-09-12T07:02:05.817Z,18.70
2018-09-12T07:04:33.531Z,18.79
2018-09-12T07:07:01.471Z,18.87
2018-09-12T07:09:29.216Z,18.99
2018-09-12T07:11:56.963Z,19.15
2018-09-12T07:14:25.192Z,19.28
2018-09-12T07:16:52.879Z,19.38
2018-09-12T07:19:20.627Z,19.47
2018-09-12T07:21:48.332Z,19.59
2018-09-12T07:24:16.038Z,19.72
2018-09-12T07:26:43.694Z,19.84
2018-09-12T07:29:11.409Z,19.98
2018-09-12T07:31:39.482Z,20.10
2018-09-12T07:34:07.583Z,20.31
2018-09-12T07:36:35.304Z,20.43
2018-09-12T07:39:05.359Z,20.58
2018-09-12T07:41:33.121Z,20.72
2018-09-12T07:44:01.360Z,20.97
2018-09-12T07:46:29.093Z,21.15
2018-09-12T07:48:56.845Z,21.22
2018-09-12T07:51:24.531Z,21.42
2018-09-12T07:53:52.318Z,21.61
2018-09-12T07:56:20.176Z,21.76
2018-09-12T07:58:48.179Z,22.00
2018-09-12T08:01:15.875Z,22.19
2018-09-12T08:03:43.663Z,22.52
2018-09-12T08:06:11.363Z,22.74
2018-09-12T08:08:39.343Z,23.14
2018-09-12T08:11:07.062Z,23.48
2018-09-12T08:13:34.792Z,23.39
2018-09-12T08:16:02.504Z,22.43
2018-09-12T08:18:30.227Z,22.03
2018-09-12T08:20:58.052Z,22.04
2018-09-12T08:23:25.767Z,22.04
2018-09-12T08:25:53.483Z,22.18
2018-09-12T08:28:21.179Z,22.56
2018-09-12T08:30:48.955Z,22.81
2018-09-12T08:33:16.672Z,23.29
2018-09-12T08:35:44.535Z,23.62
2018-09-12T08:38:12.254Z,24.13
2018-09-12T08:40:40.428Z,24.54
2018-09-12T08:43:08.159Z,24.90
2018-09-12T08:45:39.323Z,25.18
2018-09-12T08:48:07.027Z,25.48
2018-09-12T08:50:35.423Z,25.71
2018-09-12T08:53:03.208Z,25.94
2018-09-12T08:55:30.871Z,26.32
2018-09-12T08:57:58.635Z,26.50
2018-09-12T09:00:31.855Z,26.84
2018-09-12T09:02:59.740Z,27.35
2018-09-12T09:05:27.578Z,27.53
2018-09-12T09:07:55.244Z,27.93
2018-09-12T09:10:23.178Z,28.24
2018-09-12T09:12:51.011Z,28.21
2018-09-12T09:15:18.725Z,28.76
2018-09-12T09:17:46.483Z,29.29
2018-09-12T09:20:14.279Z,29.54
2018-09-12T09:22:41.971Z,29.64
2018-09-12T09:25:09.666Z,29.76
2018-09-12T09:27:37.379Z,30.02
2018-09-12T09:30:06.074Z,30.02
2018-09-12T09:32:33.918Z,29.87
2018-09-12T09:35:01.814Z,30.47
2018-09-12T09:37:29.478Z,30.79
2018-09-12T09:39:57.654Z,30.82
2018-09-12T09:42:25.431Z,31.02
2018-09-12T09:44:53.221Z,30.83
2018-09-12T09:47:21.767Z,31.17
2018-09-12T09:49:56.628Z,31.67
2018-09-12T09:52:25.879Z,31.54
2018-09-12T09:54:54.037Z,31.66
2018-09-12T09:57:22.342Z,31.65
2018-09-12T09:59:50.331Z,31.63
2018-09-12T10:03:22.235Z,32.36
2018-09-12T10:05:56.333Z,32.68
2018-09-12T10:08:28.664Z,32.89
2018-09-12T10:10:56.834Z,32.96
2018-09-12T10:13:24.525Z,32.86
2018-09-12T10:15:52.247Z,32.48
2018-09-12T10:18:19.967Z,33.10
2018-09-12T10:20:47.735Z,33.52
2018-09-12T10:23:15.535Z,33.13
2018-09-12T10:25:43.386Z,33.62
2018-09-12T10:28:11.130Z,33.90
2018-09-12T10:30:38.894Z,33.61
2018-09-12T10:33:06.594Z,33.90
2018-09-12T10:35:34.271Z,33.60
2018-09-12T10:38:02.099Z,33.52
2018-09-12T10:40:29.840Z,34.24
2018-09-12T10:42:57.534Z,34.15
2018-09-12T10:45:25.418Z,34.79
2018-09-12T10:47:53.110Z,34.73
2018-09-12T10:50:20.859Z,35.29
2018-09-12T10:52:48.552Z,35.86
2018-09-12T10:55:16.245Z,35.17
2018-09-12T10:57:43.947Z,34.71
2018-09-12T11:00:11.705Z,35.52
2018-09-12T11:02:39.532Z,35.70
2018-09-12T11:05:07.250Z,35.93
2018-09-12T11:07:34.967Z,35.48
2018-09-12T11:10:02.741Z,35.51
2018-09-12T11:12:30.583Z,35.61
2018-09-12T11:14:58.314Z,36.20
2018-09-12T11:17:26.203Z,36.03
2018-09-12T11:19:54.254Z,36.01
2018-09-12T11:22:22.163Z,36.33
2018-09-12T11:24:50.035Z,36.30
2018-09-12T11:27:17.715Z,36.24
2018-09-12T11:29:45.443Z,36.57
2018-09-12T11:32:13.290Z,36.81
2018-09-12T11:34:40.979Z,36.12
2018-09-12T11:37:08.894Z,36.47
2018-09-12T11:39:36.587Z,36.47
2018-09-12T11:42:04.437Z,36.97
2018-09-12T11:44:32.107Z,37.38
2018-09-12T11:46:59.831Z,37.66
2018-09-12T11:49:27.827Z,37.04
2018-09-12T11:51:55.539Z,36.81
2018-09-12T11:54:23.234Z,37.53
2018-09-12T11:56:50.983Z,38.02
2018-09-12T11:59:18.732Z,38.41
2018-09-12T12:01:46.511Z,38.35
2018-09-12T12:04:14.203Z,38.72
2018-09-12T12:06:41.914Z,38.66
2018-09-12T12:09:10.347Z,38.22
2018-09-12T12:11:38.416Z,38.51
2018-09-12T12:14:06.355Z,38.21
2018-09-12T12:16:34.526Z,38.09
2018-09-12T12:19:02.316Z,37.18
2018-09-12T12:21:30.478Z,37.55
2018-09-12T12:23:58.374Z,37.79
2018-09-12T12:26:26.194Z,38.36
2018-09-12T12:28:54.018Z,38.55
2018-09-12T12:31:21.706Z,38.75
2018-09-12T12:33:49.801Z,38.30
2018-09-12T12:36:17.495Z,38.61
2018-09-12T12:38:45.343Z,38.95
2018-09-12T12:41:13.214Z,38.44
2018-09-12T12:43:40.911Z,38.44
2018-09-12T12:46:08.958Z,38.63
2018-09-12T12:48:36.904Z,38.49
2018-09-12T12:51:05.115Z,37.75
2018-09-12T12:53:32.979Z,37.31
2018-09-12T12:56:00.671Z,37.07
2018-09-12T12:58:28.701Z,37.82
2018-09-12T13:00:56.407Z,37.59
2018-09-12T13:03:24.096Z,38.09
2018-09-12T13:05:51.892Z,38.33
2018-09-12T13:08:19.639Z,37.38
2018-09-12T13:10:47.395Z,37.41
2018-09-12T13:13:15.191Z,37.59
2018-09-12T13:15:42.942Z,37.72
2018-09-12T13:18:10.660Z,37.46
2018-09-12T13:20:50.939Z,37.65
2018-09-12T13:23:18.707Z,37.64
2018-09-12T13:25:46.500Z,37.79
2018-09-12T13:28:14.374Z,37.86
2018-09-12T13:30:42.338Z,38.21
2018-09-12T13:33:10.018Z,38.26
2018-09-12T13:35:37.728Z,37.73
2018-09-12T13:38:05.495Z,36.86
2018-09-12T13:40:33.323Z,37.08
2018-09-12T13:43:01.229Z,37.41
2018-09-12T13:45:28.995Z,37.61
2018-09-12T13:47:56.707Z,37.73
2018-09-12T13:50:24.583Z,38.00
2018-09-12T13:52:52.295Z,37.03
2018-09-12T13:55:20.023Z,36.83
2018-09-12T13:57:47.798Z,36.86
2018-09-12T14:00:15.528Z,37.03
2018-09-12T14:02:43.258Z,36.89
2018-09-12T14:05:11.241Z,36.81
2018-09-12T14:07:38.916Z,37.03
2018-09-12T14:10:06.753Z,37.08
2018-09-12T14:12:34.736Z,37.13
2018-09-12T14:15:02.695Z,37.08
2018-09-12T14:17:30.576Z,36.64
2018-09-12T14:19:58.472Z,36.58
2018-09-12T14:22:26.202Z,36.62
2018-09-12T14:24:53.980Z,36.56
2018-09-12T14:27:21.648Z,36.12
2018-09-12T14:29:49.314Z,35.90
2018-09-12T14:32:17.119Z,35.80
2018-09-12T14:34:45.719Z,35.59
2018-09-12T14:37:13.522Z,35.42
2018-09-12T14:39:41.283Z,35.35
2018-09-12T14:42:09.120Z,35.31
2018-09-12T14:44:36.755Z,35.38
2018-09-12T14:47:04.892Z,35.07
2018-09-12T14:49:32.615Z,34.98
2018-09-12T14:52:00.351Z,34.98
2018-09-12T14:54:28.118Z,34.88
2018-09-12T14:56:56.012Z,34.55
2018-09-12T14:59:23.750Z,34.58
2018-09-12T15:01:51.514Z,34.57
2018-09-12T15:04:19.205Z,34.50
2018-09-12T15:06:46.975Z,34.42
2018-09-12T15:09:14.868Z,34.05
2018-09-12T15:11:43.439Z,33.84
2018-09-12T15:14:11.257Z,33.61
2018-09-12T15:16:38.931Z,33.23
2018-09-12T15:19:07.350Z,33.37
2018-09-12T15:21:37.191Z,33.44
2018-09-12T15:24:05.251Z,33.38
2018-09-12T15:26:32.955Z,33.42
2018-09-12T15:29:00.737Z,33.35
2018-09-12T15:31:28.398Z,33.16
2018-09-12T15:33:56.246Z,33.20
2018-09-12T15:36:23.986Z,33.16
2018-09-12T15:38:52.866Z,32.82
2018-09-12T15:41:20.861Z,32.49
2018-09-12T15:43:48.486Z,32.47
2018-09-12T15:46:16.474Z,32.62
2018-09-12T15:48:44.246Z,32.70
2018-09-12T15:51:12.310Z,32.72
2018-09-12T15:53:40.080Z,32.70
2018-09-12T15:56:08.047Z,32.65
2018-09-12T15:58:35.913Z,32.59
2018-09-12T16:01:03.715Z,32.38
2018-09-12T16:03:31.436Z,32.26
2018-09-12T16:05:59.269Z,32.15
2018-09-12T16:08:26.974Z,31.96
2018-09-12T16:10:54.947Z,32.09
2018-09-12T16:13:23.664Z,32.17
2018-09-12T16:15:51.387Z,32.18
2018-09-12T16:18:19.111Z,32.06
2018-09-12T16:20:47.122Z,32.01
2018-09-12T16:23:14.853Z,32.02
2018-09-12T16:25:43.681Z,32.01
2018-09-12T16:28:11.451Z,31.88
2018-09-12T16:30:39.280Z,31.82
2018-09-12T16:33:07.101Z,31.77
2018-09-12T16:35:34.746Z,31.71
2018-09-12T16:38:02.524Z,31.64
2018-09-12T16:40:30.293Z,31.42
2018-09-12T16:42:58.030Z,31.36
2018-09-12T16:45:26.058Z,31.38
2018-09-12T16:47:53.835Z,31.39
2018-09-12T16:50:21.512Z,31.23
2018-09-12T16:52:49.294Z,31.08
2018-09-12T16:55:17.020Z,30.97
2018-09-12T16:57:44.709Z,30.83
2018-09-12T17:00:12.591Z,30.67
2018-09-12T17:02:40.471Z,30.51
2018-09-12T17:05:08.236Z,30.35
2018-09-12T17:07:35.907Z,30.21
2018-09-12T17:10:03.781Z,30.05
2018-09-12T17:12:31.526Z,29.87
2018-09-12T17:14:59.227Z,29.78
2018-09-12T17:17:27.007Z,29.64
2018-09-12T17:19:54.689Z,29.48
2018-09-12T17:22:22.593Z,29.35
2018-09-12T17:24:50.471Z,29.21
2018-09-12T17:27:18.186Z,29.09
2018-09-12T17:29:45.944Z,28.97
2018-09-12T17:32:13.680Z,28.87
2018-09-12T17:34:41.687Z,28.78
2018-09-12T17:37:09.605Z,28.69
2018-09-12T17:39:37.307Z,28.59
2018-09-12T17:42:06.220Z,28.52
2018-09-12T17:44:34.079Z,28.47
2018-09-12T17:47:01.939Z,28.40
2018-09-12T17:49:29.702Z,28.35
2018-09-12T17:51:57.443Z,28.37
2018-09-12T17:54:25.146Z,28.41
2018-09-12T17:56:52.912Z,28.40
2018-09-12T17:59:21.064Z,28.37
2018-09-12T18:01:48.740Z,28.30
2018-09-12T18:07:26.699Z,28.11
2018-09-12T18:09:54.483Z,28.11
2018-09-12T18:12:22.199Z,27.98
2018-09-12T18:14:50.268Z,27.85
2018-09-12T18:17:18.052Z,27.79
2018-09-12T18:19:45.719Z,27.74
2018-09-12T18:22:13.438Z,27.67
2018-09-12T18:24:41.209Z,27.69
2018-09-12T18:27:09.087Z,27.70
2018-09-12T18:29:36.845Z,27.72
2018-09-12T18:32:04.688Z,27.76
2018-09-12T18:34:32.571Z,27.78
2018-09-12T18:37:00.742Z,27.75
2018-09-12T18:39:28.541Z,27.71
2018-09-12T18:41:56.332Z,27.62
2018-09-12T18:44:24.023Z,27.59
2018-09-12T18:46:52.061Z,27.54
2018-09-12T18:49:19.875Z,27.44
2018-09-12T18:51:47.779Z,27.31
2018-09-12T18:54:15.748Z,27.13
2018-09-12T18:56:43.547Z,26.92
2018-09-12T18:59:11.331Z,26.75
2018-09-12T19:01:39.143Z,26.66
2018-09-12T19:04:07.356Z,26.53
2018-09-12T19:06:35.156Z,26.44
2018-09-12T19:09:04.998Z,26.32
2018-09-12T19:11:32.775Z,26.21
2018-09-12T19:14:00.777Z,26.14
2018-09-12T19:16:28.602Z,26.00
2018-09-12T19:18:56.447Z,25.92
2018-09-12T19:21:24.177Z,25.94
2018-09-12T19:23:52.035Z,25.81
2018-09-12T19:26:19.763Z,25.70
2018-09-12T19:28:47.923Z,25.63
2018-09-12T19:31:15.700Z,25.46
2018-09-12T19:33:43.524Z,25.52
2018-09-12T19:36:11.313Z,25.46
2018-09-12T19:38:39.115Z,25.44
2018-09-12T19:41:07.206Z,25.39
2018-09-12T19:43:34.974Z,25.28
2018-09-12T19:46:02.690Z,25.20
2018-09-12T19:48:30.415Z,25.08
2018-09-12T19:50:58.195Z,25.07
2018-09-12T19:53:26.218Z,25.11
2018-09-12T19:55:54.043Z,25.03
2018-09-12T19:58:21.735Z,24.85
2018-09-12T20:00:49.703Z,24.77
2018-09-12T20:03:17.517Z,24.65
2018-09-12T20:05:45.201Z,24.48
2018-09-12T20:08:12.907Z,24.35
2018-09-12T20:10:40.627Z,24.26
2018-09-12T20:13:08.396Z,24.16
2018-09-12T20:15:36.071Z,24.00
2018-09-12T20:18:03.811Z,24.01
2018-09-12T20:20:31.551Z,23.86
2018-09-12T20:23:02.735Z,23.81
2018-09-12T20:25:30.503Z,23.74
2018-09-12T20:27:58.222Z,23.72
2018-09-12T20:30:25.999Z,23.71
2018-09-12T20:32:54.041Z,23.57
2018-09-12T20:35:21.703Z,23.54
2018-09-12T20:37:49.438Z,23.48
2018-09-12T20:40:17.122Z,23.42
2018-09-12T20:42:44.836Z,23.35
2018-09-12T20:45:12.554Z,23.31
2018-09-12T20:47:40.219Z,23.30
2018-09-12T20:50:08.380Z,23.26
2018-09-12T20:52:36.048Z,23.22
2018-09-12T20:55:03.795Z,23.18
2018-09-12T20:57:31.639Z,23.23
2018-09-12T20:59:59.323Z,23.17
2018-09-12T21:02:27.001Z,23.14
2018-09-12T21:04:54.713Z,23.15
2018-09-12T21:07:22.445Z,23.11
2018-09-12T21:09:50.219Z,23.05
2018-09-12T21:12:17.979Z,22.98
2018-09-12T21:14:45.647Z,22.92
2018-09-12T21:17:13.431Z,22.89
2018-09-12T21:19:41.145Z,22.84
2018-09-12T21:22:08.823Z,22.74
2018-09-12T21:24:40.052Z,22.69
2018-09-12T21:27:07.835Z,22.67
2018-09-12T21:29:35.547Z,22.70
2018-09-12T21:32:03.259Z,22.71
2018-09-12T21:34:30.943Z,22.65
2018-09-12T21:36:58.635Z,22.64
2018-09-12T21:39:26.330Z,22.61
2018-09-12T21:41:54.000Z,22.54
2018-09-12T21:44:21.683Z,22.52
2018-09-12T21:46:49.527Z,22.48
2018-09-12T21:49:17.263Z,22.42
2018-09-12T21:51:44.946Z,22.32
2018-09-12T21:54:12.661Z,22.32
2018-09-12T21:56:40.358Z,22.26
2018-09-12T21:59:08.069Z,22.22
2018-09-12T22:01:35.805Z,22.16
2018-09-12T22:04:03.502Z,22.20
2018-09-12T22:06:31.222Z,22.20
2018-09-12T22:08:58.926Z,22.20
2018-09-12T22:11:26.614Z,22.05
2018-09-12T22:13:54.348Z,22.03
2018-09-12T22:16:22.387Z,22.01
2018-09-12T22:18:50.225Z,21.99
2018-09-12T22:21:17.979Z,21.95
2018-09-12T22:23:45.660Z,21.85
2018-09-12T22:26:13.348Z,21.86
2018-09-12T22:28:41.067Z,21.78
2018-09-12T22:31:08.827Z,21.69
2018-09-12T22:33:36.495Z,21.73
2018-09-12T22:36:04.258Z,21.74
2018-09-12T22:38:31.971Z,21.71
2018-09-12T22:40:59.660Z,21.69
2018-09-12T22:43:27.379Z,21.65
2018-09-12T22:45:55.064Z,21.64
2018-09-12T22:48:26.765Z,21.52
2018-09-12T22:50:54.480Z,21.52
2018-09-12T22:53:22.228Z,21.55
2018-09-12T22:55:49.935Z,21.56
2018-09-12T22:58:17.651Z,21.50
2018-09-12T23:00:45.416Z,21.43
2018-09-12T23:03:13.246Z,21.38
2018-09-12T23:05:40.922Z,21.40
2018-09-12T23:08:08.638Z,21.39
2018-09-12T23:10:36.377Z,21.39
2018-09-12T23:13:04.302Z,21.33
2018-09-12T23:15:31.983Z,21.29
2018-09-12T23:17:59.889Z,21.27
2018-09-12T23:20:27.591Z,21.24
2018-09-12T23:22:55.276Z,21.24
2018-09-12T23:25:22.987Z,21.26
2018-09-12T23:27:50.660Z,21.19
2018-09-12T23:30:18.334Z,21.11
2018-09-12T23:32:46.646Z,21.08
2018-09-12T23:35:14.375Z,21.01
2018-09-12T23:37:42.062Z,21.03
2018-09-12T23:40:09.781Z,21.05
2018-09-12T23:42:37.452Z,21.02
2018-09-12T23:45:05.280Z,21.00
2018-09-12T23:47:32.952Z,20.95
2018-09-12T23:50:00.993Z,21.01
2018-09-12T23:52:28.696Z,20.93
2018-09-12T23:54:56.445Z,20.94
2018-09-12T23:57:24.225Z,20.92
2018-09-12T23:59:51.891Z,20.87
